Time;durP1;ratioP1;P1;durP2;ratioP2;P2;SDS_P1;SDS_P2;PMS_P1;PMS_P2;Temp;Humidity;BMP_temperature;BMP_pressure;BME280_temperature;BME280_humidity;BME280_pressure;Samples;Min_cycle;Max_cycle;Signal;HPM_P1;HPM_P2
2022/12/08 00:01:36;;;;;;;4.93;0.80;;;2.80;99.90;;;;;;5067891;28;20402;-53
2022/12/08 00:04:03;;;;;;;2.30;0.80;;;2.90;99.90;;;;;;5068206;28;20237;-51
2022/12/08 00:09:31;;;;;;;6.07;1.00;;;2.90;99.90;;;;;;5049417;28;20044;-51
2022/12/08 00:12:03;;;;;;;5.18;0.77;;;2.80;99.90;;;;;;5052232;28;20492;-51
2022/12/08 00:14:32;;;;;;;6.05;1.15;;;2.90;99.90;;;;;;5068893;28;20036;-51
2022/12/08 00:16:59;;;;;;;5.57;0.85;;;2.90;99.90;;;;;;5053870;28;20086;-53
2022/12/08 00:19:25;;;;;;;;;;;2.90;99.90;;;;;;5048796;28;20128;-51
2022/12/08 00:21:51;;;;;;;7.03;1.00;;;2.90;99.90;;;;;;5049560;28;19921;-53
2022/12/08 00:24:17;;;;;;;3.40;0.98;;;2.90;99.90;;;;;;5049628;28;20041;-51
2022/12/08 00:26:43;;;;;;;6.72;0.95;;;2.90;99.90;;;;;;5049239;28;20041;-51
2022/12/08 00:29:09;;;;;;;4.30;0.90;;;2.90;99.90;;;;;;5049412;28;20438;-53
2022/12/08 00:31:34;;;;;;;4.23;0.70;;;2.90;99.90;;;;;;5049741;28;20271;-53
2022/12/08 00:34:00;;;;;;;4.25;0.95;;;2.90;99.90;;;;;;5049353;28;20076;-53
2022/12/08 00:36:26;;;;;;;6.40;1.63;;;2.90;99.90;;;;;;5049519;28;20044;-55
2022/12/08 00:38:52;;;;;;;3.92;1.25;;;2.80;99.90;;;;;;5062829;28;20093;-52
2022/12/08 00:42:10;;;;;;;3.70;0.90;;;2.80;99.90;;;;;;5060709;28;20040;-55
2022/12/08 00:44:10;;;;;;;4.68;0.77;;;2.80;99.90;;;;;;5053688;28;20482;-55
2022/12/08 00:46:36;;;;;;;7.57;1.40;;;2.80;99.90;;;;;;5069569;28;20072;-53
2022/12/08 00:49:03;;;;;;;15.02;1.08;;;2.70;99.90;;;;;;5069226;28;20095;-51
2022/12/08 00:51:29;;;;;;;3.92;0.80;;;2.70;99.90;;;;;;5066034;28;20037;-56
2022/12/08 00:53:54;;;;;;;3.72;0.90;;;2.70;99.90;;;;;;5067529;28;20040;-55
2022/12/08 00:56:20;;;;;;;2.47;0.77;;;2.60;99.90;;;;;;5056214;28;20056;-53
2022/12/08 00:58:46;;;;;;;5.23;1.83;;;2.70;99.90;;;;;;5055569;28;20032;-53
2022/12/08 01:01:12;;;;;;;5.40;2.10;;;2.60;99.90;;;;;;5064263;28;20093;-56
2022/12/08 01:03:39;;;;;;;4.07;1.23;;;2.60;99.90;;;;;;5067445;28;20047;-53
2022/12/08 01:06:05;;;;;;;5.22;1.50;;;2.50;99.90;;;;;;5053544;28;20075;-54
2022/12/08 01:08:31;;;;;;;9.70;2.38;;;2.50;99.90;;;;;;5065189;28;20044;-56
2022/12/08 01:11:02;;;;;;;7.03;2.20;;;2.50;99.90;;;;;;5049628;28;20033;-52
2022/12/08 01:13:28;;;;;;;7.93;2.60;;;2.50;99.90;;;;;;5054939;28;20071;-55
2022/12/08 01:15:53;;;;;;;5.80;2.03;;;2.50;99.90;;;;;;5061061;28;20076;-53
2022/12/08 01:18:19;;;;;;;5.10;2.53;;;2.50;99.90;;;;;;5052466;28;20029;-56
2022/12/08 01:20:45;;;;;;;3.67;2.80;;;2.50;99.90;;;;;;5063909;28;20047;-55
2022/12/08 01:23:11;;;;;;;6.10;2.65;;;2.50;99.90;;;;;;5071646;28;20045;-55
2022/12/08 01:25:36;;;;;;;8.17;3.40;;;2.50;99.90;;;;;;5069067;28;20035;-55
2022/12/08 01:28:02;;;;;;;7.10;2.93;;;2.50;99.90;;;;;;5052534;28;20037;-56
2022/12/08 01:30:28;;;;;;;12.73;4.10;;;2.50;99.90;;;;;;5052713;28;20041;-55
2022/12/08 01:32:53;;;;;;;4.23;3.07;;;2.40;99.90;;;;;;5065018;28;20498;-57
2022/12/08 01:35:19;;;;;;;10.13;2.93;;;2.50;99.90;;;;;;5072099;28;20120;-53
2022/12/08 01:37:44;;;;;;;7.27;3.57;;;2.40;99.90;;;;;;5070822;28;20375;-51
2022/12/08 01:40:10;;;;;;;11.70;4.10;;;2.40;99.90;;;;;;5066223;28;20160;-54
2022/12/08 01:42:37;;;;;;;6.40;3.90;;;2.40;99.90;;;;;;5052495;28;20044;-55
2022/12/08 01:45:12;;;;;;;;;;;2.40;99.90;;;;;;5051785;28;20073;-51
2022/12/08 01:47:43;;;;;;;8.77;3.85;;;2.40;99.90;;;;;;5065222;28;19923;-53
2022/12/08 01:50:12;;;;;;;10.63;4.68;;;2.50;99.90;;;;;;5061620;28;20051;-51
2022/12/08 01:52:47;;;;;;;10.68;4.57;;;2.50;99.90;;;;;;5052526;28;20037;-52
2022/12/08 01:55:27;;;;;;;9.27;4.38;;;2.60;99.90;;;;;;5051325;28;20579;-55
2022/12/08 01:57:57;;;;;;;7.07;4.18;;;2.60;99.90;;;;;;5051904;28;20048;-54
2022/12/08 02:00:23;;;;;;;9.30;4.28;;;2.70;99.90;;;;;;5052844;28;20072;-54
2022/12/08 02:03:10;;;;;;;9.65;5.68;;;2.70;99.90;;;;;;5052295;28;20114;-54
2022/12/08 02:05:38;;;;;;;12.90;4.90;;;2.70;99.90;;;;;;5064435;28;20406;-51
2022/12/08 02:08:07;;;;;;;6.38;4.45;;;2.70;99.90;;;;;;5052214;28;20088;-51
2022/12/08 02:10:35;;;;;;;6.80;4.72;;;2.80;99.90;;;;;;5061017;28;20032;-54
2022/12/08 02:13:02;;;;;;;10.00;5.45;;;2.70;99.90;;;;;;5057237;28;20047;-56
2022/12/08 02:15:38;;;;;;;11.45;5.07;;;2.80;99.90;;;;;;5060888;28;20135;-54
2022/12/08 02:18:28;;;;;;;7.50;5.20;;;2.80;99.90;;;;;;5061036;28;20059;-52
2022/12/08 02:21:15;;;;;;;8.98;4.32;;;2.80;99.90;;;;;;5054935;28;20040;-54
2022/12/08 02:23:41;;;;;;;;;;;2.90;99.90;;;;;;5056600;28;20457;-56
2022/12/08 02:26:31;;;;;;;9.32;4.32;;;2.80;99.90;;;;;;5053979;28;19978;-51
2022/12/08 02:29:14;;;;;;;8.63;4.47;;;2.90;99.90;;;;;;5061722;28;20135;-51
2022/12/08 02:32:21;;;;;;;5.03;3.90;;;2.90;99.90;;;;;;5052379;28;20036;-53
2022/12/08 02:34:57;;;;;;;5.90;4.40;;;2.90;99.90;;;;;;5022470;28;20489;-52
2022/12/08 02:37:23;;;;;;;8.18;4.97;;;3.00;99.90;;;;;;5051198;28;20041;-55
2022/12/08 02:40:11;;;;;;;7.27;4.80;;;2.90;99.90;;;;;;5051266;28;20040;-51
2022/12/08 02:42:47;;;;;;;7.63;4.47;;;3.00;99.90;;;;;;5058183;28;20075;-55
2022/12/08 02:45:20;;;;;;;7.72;5.22;;;3.00;99.90;;;;;;5070806;28;20041;-52
2022/12/08 02:47:47;;;;;;;11.07;5.00;;;3.00;99.90;;;;;;5053088;28;20045;-52
2022/12/08 02:50:14;;;;;;;9.93;4.45;;;3.10;99.90;;;;;;5050809;28;20033;-55
2022/12/08 02:52:42;;;;;;;12.80;5.07;;;3.10;99.90;;;;;;5051856;28;20134;-51
2022/12/08 02:55:23;;;;;;;10.30;5.25;;;3.10;99.90;;;;;;5050346;28;20037;-55
2022/12/08 02:58:18;;;;;;;9.30;4.70;;;3.10;99.90;;;;;;5050841;28;20048;-55
2022/12/08 03:00:55;;;;;;;8.18;6.00;;;3.10;99.90;;;;;;5050819;28;20045;-55
2022/12/08 03:03:54;;;;;;;12.38;5.95;;;3.20;99.90;;;;;;5051166;28;20081;-54
2022/12/08 03:06:41;;;;;;;7.88;6.05;;;3.20;99.90;;;;;;5050901;28;20098;-51
2022/12/08 03:09:14;;;;;;;9.52;5.30;;;3.20;99.90;;;;;;5058783;28;20106;-53
2022/12/08 03:11:47;;;;;;;13.60;6.07;;;3.20;99.90;;;;;;5056552;28;20226;-53
2022/12/08 03:14:16;;;;;;;8.43;5.18;;;3.20;99.90;;;;;;5064039;28;20480;-54
2022/12/08 03:16:46;;;;;;;10.48;5.72;;;3.20;99.90;;;;;;5050639;28;20539;-52
2022/12/08 03:19:25;;;;;;;9.70;6.35;;;3.20;99.90;;;;;;5050932;28;20056;-55
2022/12/08 03:22:01;;;;;;;8.48;5.45;;;3.20;99.90;;;;;;5068687;28;20114;-55
2022/12/08 03:24:29;;;;;;;7.40;5.38;;;3.20;99.90;;;;;;5062132;28;20176;-53
2022/12/08 03:27:01;;;;;;;7.60;5.63;;;3.20;99.90;;;;;;5050373;28;20037;-57
2022/12/08 03:29:26;;;;;;;8.75;6.40;;;3.20;99.90;;;;;;5050732;28;20044;-54
2022/12/08 03:32:12;;;;;;;9.40;6.10;;;3.20;99.90;;;;;;5063031;28;20108;-54
2022/12/08 03:34:42;;;;;;;10.77;6.18;;;3.10;99.90;;;;;;5057007;28;20048;-54
2022/12/08 03:37:08;;;;;;;11.00;6.63;;;3.10;99.90;;;;;;5066076;28;20055;-54
2022/12/08 03:39:37;;;;;;;7.60;5.40;;;3.10;99.90;;;;;;5053567;28;20046;-55
2022/12/08 03:42:02;;;;;;;6.55;5.80;;;3.10;99.90;;;;;;5060354;28;20124;-53
2022/12/08 03:44:28;;;;;;;7.37;5.97;;;3.10;99.90;;;;;;5059746;28;20115;-55
2022/12/08 03:46:53;;;;;;;8.80;6.27;;;3.10;99.90;;;;;;5049989;28;20041;-51
2022/12/08 03:49:19;;;;;;;12.50;6.50;;;3.10;99.90;;;;;;5049897;28;20032;-53
2022/12/08 03:51:44;;;;;;;8.87;5.07;;;3.10;99.90;;;;;;5050374;28;20048;-53
2022/12/08 03:54:10;;;;;;;7.87;6.63;;;3.10;99.90;;;;;;5062979;28;20064;-53
2022/12/08 03:56:37;;;;;;;9.77;6.17;;;3.10;99.90;;;;;;5061767;28;20048;-51
2022/12/08 03:59:04;;;;;;;8.48;6.28;;;3.10;99.90;;;;;;5049461;28;20056;-56
2022/12/08 04:01:30;;;;;;;11.35;6.95;;;3.20;99.90;;;;;;5049307;28;20071;-54
2022/12/08 04:03:56;;;;;;;10.02;6.03;;;3.20;99.90;;;;;;5048970;28;20037;-51
2022/12/08 04:06:22;;;;;;;8.53;5.80;;;3.20;99.90;;;;;;5051212;28;20036;-51
2022/12/08 04:08:48;;;;;;;11.13;6.72;;;3.20;99.90;;;;;;5057239;28;20056;-52
2022/12/08 04:11:15;;;;;;;10.50;5.85;;;3.20;99.90;;;;;;5058295;28;20048;-51
2022/12/08 04:13:41;;;;;;;8.73;6.47;;;3.20;99.90;;;;;;5048485;28;20624;-52
2022/12/08 04:16:07;;;;;;;;;;;3.20;99.90;;;;;;5050184;28;20067;-52
2022/12/08 04:18:34;;;;;;;9.75;6.10;;;3.20;99.90;;;;;;5050412;28;19971;-54
2022/12/08 04:21:00;;;;;;;10.20;6.43;;;3.30;99.90;;;;;;5049719;28;20040;-52
2022/12/08 04:23:26;;;;;;;7.18;6.35;;;3.20;99.90;;;;;;5048500;28;20044;-54
2022/12/08 04:25:52;;;;;;;12.97;7.23;;;3.30;99.90;;;;;;5049522;28;20037;-53
2022/12/08 04:28:18;;;;;;;11.73;8.23;;;3.30;99.90;;;;;;5061222;28;20037;-51
2022/12/08 04:30:44;;;;;;;9.85;7.03;;;3.30;99.90;;;;;;5063472;28;20037;-51
2022/12/08 04:33:10;;;;;;;13.68;8.35;;;3.30;99.90;;;;;;5048454;28;20130;-52
2022/12/08 04:35:35;;;;;;;13.47;8.37;;;3.40;99.90;;;;;;5065767;28;20454;-52
2022/12/08 04:38:01;;;;;;;13.07;7.67;;;3.40;99.90;;;;;;5067462;28;20402;-53
2022/12/08 04:40:27;;;;;;;11.13;7.90;;;3.40;99.90;;;;;;5069564;28;20120;-53
2022/12/08 04:42:52;;;;;;;14.95;8.57;;;3.40;99.90;;;;;;5068438;28;20116;-51
2022/12/08 04:45:18;;;;;;;11.20;8.43;;;3.40;99.90;;;;;;5069587;28;20032;-52
2022/12/08 04:47:43;;;;;;;13.13;8.80;;;3.40;99.90;;;;;;5069160;28;20403;-54
2022/12/08 04:50:09;;;;;;;11.17;8.43;;;3.40;99.90;;;;;;5056463;28;20038;-53
2022/12/08 04:52:35;;;;;;;11.63;8.63;;;3.40;99.90;;;;;;5053361;28;20037;-54
2022/12/08 04:55:02;;;;;;;13.50;8.38;;;3.40;99.90;;;;;;5059089;28;20043;-55
2022/12/08 04:57:27;;;;;;;19.70;9.30;;;3.40;99.90;;;;;;5071749;28;20037;-54
2022/12/08 04:59:53;;;;;;;11.30;8.33;;;3.40;99.90;;;;;;5067051;28;20118;-52
2022/12/08 05:02:19;;;;;;;20.20;10.57;;;3.40;99.90;;;;;;5073462;28;20047;-54
2022/12/08 05:04:44;;;;;;;11.73;7.60;;;3.40;99.90;;;;;;5062779;28;20033;-56
2022/12/08 05:07:10;;;;;;;13.43;8.17;;;3.40;99.90;;;;;;5053040;28;20045;-52
2022/12/08 05:09:35;;;;;;;10.37;7.70;;;3.40;99.90;;;;;;5064099;28;20445;-52
2022/12/08 05:12:01;;;;;;;8.23;7.40;;;3.40;99.90;;;;;;5056303;28;20087;-54
2022/12/08 05:14:26;;;;;;;10.77;6.53;;;3.40;99.90;;;;;;5052383;28;20513;-55
2022/12/08 05:16:52;;;;;;;11.03;6.83;;;3.40;99.90;;;;;;5052802;28;20037;-54
2022/12/08 05:19:18;;;;;;;11.50;6.53;;;3.40;99.90;;;;;;5053105;28;20567;-52
2022/12/08 05:21:43;;;;;;;11.80;7.17;;;3.40;99.90;;;;;;5054040;28;20037;-55
2022/12/08 05:24:09;;;;;;;8.37;6.10;;;3.40;99.90;;;;;;5051710;28;20524;-55
2022/12/08 05:26:35;;;;;;;8.40;5.38;;;3.40;99.90;;;;;;5072378;28;20628;-57
2022/12/08 05:29:00;;;;;;;10.23;6.53;;;3.40;99.90;;;;;;5072436;28;20529;-52
2022/12/08 05:31:26;;;;;;;8.87;6.23;;;3.40;99.90;;;;;;5070799;28;20028;-55
2022/12/08 05:33:52;;;;;;;8.60;5.73;;;3.40;99.90;;;;;;5072053;28;20044;-54
2022/12/08 05:36:18;;;;;;;6.47;5.75;;;3.40;99.90;;;;;;5072543;28;20044;-52
2022/12/08 05:38:44;;;;;;;7.30;5.97;;;3.40;99.90;;;;;;5072110;28;20548;-56
2022/12/08 05:41:13;;;;;;;7.22;5.22;;;3.40;99.90;;;;;;5072392;28;20047;-56
2022/12/08 05:43:39;;;;;;;9.07;5.70;;;3.40;99.90;;;;;;5051912;28;20456;-55
2022/12/08 05:46:05;;;;;;;6.97;5.87;;;3.30;99.90;;;;;;5052641;28;20060;-57
2022/12/08 05:48:31;;;;;;;10.45;6.22;;;3.30;99.90;;;;;;5071013;28;20413;-51
2022/12/08 05:50:56;;;;;;;7.43;5.65;;;3.40;99.90;;;;;;5072345;28;20037;-51
2022/12/08 05:53:22;;;;;;;8.23;6.00;;;3.40;99.90;;;;;;5069439;28;20048;-55
2022/12/08 05:55:48;;;;;;;7.77;5.93;;;3.30;99.90;;;;;;5071436;28;20051;-51
2022/12/08 05:58:19;;;;;;;7.57;6.23;;;3.30;99.90;;;;;;5071976;28;20099;-52
2022/12/08 06:00:46;;;;;;;10.40;6.38;;;3.30;99.90;;;;;;5056710;28;20052;-53
2022/12/08 06:03:12;;;;;;;;;;;3.30;99.90;;;;;;5052545;28;20044;-52
2022/12/08 06:05:39;;;;;;;10.18;6.05;;;3.30;99.90;;;;;;5053495;28;19921;-54
2022/12/08 06:08:05;;;;;;;7.15;5.68;;;3.30;99.90;;;;;;5059072;28;20042;-52
2022/12/08 06:10:31;;;;;;;9.13;6.87;;;3.30;99.90;;;;;;5059813;28;20032;-51
2022/12/08 06:12:56;;;;;;;7.57;6.23;;;3.30;99.90;;;;;;5071271;28;20036;-54
2022/12/08 06:15:22;;;;;;;9.43;6.97;;;3.40;99.90;;;;;;5052762;28;20041;-54
2022/12/08 06:17:47;;;;;;;5.90;5.27;;;3.40;99.90;;;;;;5050556;28;20279;-52
2022/12/08 06:20:14;;;;;;;6.90;6.20;;;3.30;99.90;;;;;;5051628;28;20045;-51
2022/12/08 06:22:39;;;;;;;11.68;6.97;;;3.30;99.90;;;;;;5050671;28;20107;-52
2022/12/08 06:25:05;;;;;;;8.33;6.20;;;3.40;99.90;;;;;;5059385;28;20072;-51
2022/12/08 06:27:32;;;;;;;8.97;6.93;;;3.40;99.90;;;;;;5071563;28;20032;-55
2022/12/08 06:29:57;;;;;;;8.88;5.72;;;3.30;99.90;;;;;;5057823;28;20682;-51
2022/12/08 06:32:23;;;;;;;6.03;5.47;;;3.30;99.90;;;;;;5051907;28;20033;-51
2022/12/08 06:34:49;;;;;;;10.40;6.33;;;3.30;99.90;;;;;;5051494;28;20409;-54
2022/12/08 06:37:14;;;;;;;5.97;5.37;;;3.30;99.90;;;;;;5051201;28;20294;-53
2022/12/08 06:39:40;;;;;;;7.37;5.43;;;3.30;99.90;;;;;;5050864;28;20059;-51
2022/12/08 06:44:50;;;;;;;7.85;4.65;;;3.30;99.90;;;;;;5050370;28;20045;-51
2022/12/08 06:47:16;;;;;;;5.05;4.13;;;3.30;99.90;;;;;;5052438;28;20095;-53
2022/12/08 06:49:41;;;;;;;9.53;4.27;;;3.30;99.90;;;;;;5067024;28;20036;-53
2022/12/08 06:52:07;;;;;;;4.80;4.13;;;3.30;99.90;;;;;;5069059;28;20428;-51
2022/12/08 06:54:32;;;;;;;11.77;4.00;;;3.30;99.90;;;;;;5055186;28;20520;-54
2022/12/08 06:56:58;;;;;;;3.53;3.00;;;3.30;99.90;;;;;;5061083;28;20068;-52
2022/12/08 06:59:24;;;;;;;5.27;4.73;;;3.30;99.90;;;;;;5058082;28;20048;-54
2022/12/08 07:01:51;;;;;;;3.45;2.45;;;3.20;99.90;;;;;;5059627;28;20086;-54
2022/12/08 07:04:16;;;;;;;4.97;3.10;;;3.20;99.90;;;;;;5059871;28;20051;-54
2022/12/08 07:06:42;;;;;;;5.30;2.50;;;3.20;99.90;;;;;;5066715;28;20036;-53
2022/12/08 07:09:08;;;;;;;2.95;2.15;;;3.20;99.90;;;;;;5065371;28;20055;-56
2022/12/08 07:11:33;;;;;;;3.75;2.15;;;3.20;99.90;;;;;;5064282;28;20064;-51
2022/12/08 07:13:59;;;;;;;3.03;1.53;;;3.10;99.90;;;;;;5069690;28;20416;-51
2022/12/08 07:16:24;;;;;;;2.57;1.70;;;3.20;99.90;;;;;;5058460;28;20075;-53
2022/12/08 07:18:50;;;;;;;3.23;1.23;;;3.10;99.90;;;;;;5067226;28;20045;-55
2022/12/08 07:21:16;;;;;;;2.27;1.00;;;3.10;99.90;;;;;;5051799;28;20044;-54
2022/12/08 07:23:45;;;;;;;1.83;1.38;;;3.10;99.90;;;;;;5050679;28;20406;-54
2022/12/08 07:26:12;;;;;;;4.13;1.40;;;3.10;99.90;;;;;;5058642;28;20040;-56
2022/12/08 07:28:39;;;;;;;4.72;1.02;;;3.00;99.90;;;;;;5059559;28;20101;-55
2022/12/08 07:31:05;;;;;;;7.43;1.70;;;3.00;99.90;;;;;;5060178;28;20056;-56
2022/12/08 07:33:32;;;;;;;3.00;1.65;;;3.00;99.90;;;;;;5056922;28;20045;-55
2022/12/08 07:35:58;;;;;;;;;;;3.00;99.90;;;;;;5059196;28;20032;-55
2022/12/08 07:38:25;;;;;;;1.10;1.00;;;3.00;99.90;;;;;;5059510;28;19971;-54
2022/12/08 07:40:52;;;;;;;1.15;0.70;;;3.00;99.90;;;;;;5068553;28;20114;-54
2022/12/08 07:43:18;;;;;;;2.15;1.08;;;3.00;99.90;;;;;;5050164;28;20049;-55
2022/12/08 07:45:43;;;;;;;3.83;0.77;;;3.00;99.90;;;;;;5064946;28;20052;-55
2022/12/08 07:48:09;;;;;;;2.97;1.40;;;3.00;99.90;;;;;;5068193;28;20032;-55
2022/12/08 07:50:35;;;;;;;1.60;0.93;;;3.00;99.90;;;;;;5062866;28;20275;-52
2022/12/08 07:53:00;;;;;;;2.03;0.80;;;3.00;99.90;;;;;;5049234;28;20041;-53
2022/12/08 07:55:26;;;;;;;4.17;1.23;;;3.10;99.90;;;;;;5054003;28;20041;-52
2022/12/08 07:57:51;;;;;;;2.50;1.20;;;3.10;99.90;;;;;;5048775;28;20041;-55
2022/12/08 08:00:18;;;;;;;1.20;1.10;;;3.10;99.90;;;;;;5052878;28;20287;-54
2022/12/08 08:02:44;;;;;;;3.80;0.90;;;3.10;99.90;;;;;;5052445;28;20504;-55
2022/12/08 08:05:11;;;;;;;1.17;0.70;;;3.20;99.90;;;;;;5049285;28;20033;-54
2022/12/08 08:07:37;;;;;;;2.90;1.58;;;3.20;99.90;;;;;;5057949;28;20310;-52
2022/12/08 08:10:04;;;;;;;;;;;3.20;99.90;;;;;;5069043;28;20116;-52
2022/12/08 08:12:29;;;;;;;2.53;1.08;;;3.20;99.90;;;;;;5061516;28;19917;-53
2022/12/08 08:14:55;;;;;;;2.80;1.47;;;3.20;99.90;;;;;;5065820;28;20547;-51
2022/12/08 08:17:20;;;;;;;4.30;1.30;;;3.20;99.90;;;;;;5067785;28;20042;-52
2022/12/08 08:19:46;;;;;;;1.80;1.50;;;3.20;99.90;;;;;;5059507;28;20044;-54
2022/12/08 08:22:11;;;;;;;2.23;1.37;;;3.20;99.90;;;;;;5060711;28;20517;-53
2022/12/08 08:24:37;;;;;;;2.23;1.30;;;3.20;99.90;;;;;;5049988;28;20468;-51
2022/12/08 08:27:02;;;;;;;1.73;1.27;;;3.20;99.90;;;;;;5049179;28;20148;-53
2022/12/08 08:29:28;;;;;;;5.37;1.20;;;3.20;99.90;;;;;;5056500;28;20032;-55
2022/12/08 08:31:54;;;;;;;2.70;0.90;;;3.20;99.90;;;;;;5049633;28;20083;-53
2022/12/08 08:34:19;;;;;;;4.60;1.27;;;3.20;99.90;;;;;;5049654;28;20045;-51
2022/12/08 08:36:45;;;;;;;3.37;1.23;;;3.20;99.90;;;;;;5049700;28;20041;-51
2022/12/08 08:39:11;;;;;;;3.63;1.67;;;3.20;99.90;;;;;;5063460;28;20044;-53
2022/12/08 08:41:37;;;;;;;2.75;1.92;;;3.20;99.90;;;;;;5068094;28;20051;-53
2022/12/08 08:44:03;;;;;;;3.58;1.77;;;3.10;99.90;;;;;;5058011;28;20041;-55
2022/12/08 08:46:29;;;;;;;15.15;2.95;;;3.20;99.90;;;;;;5054055;28;20839;-54
2022/12/08 08:48:55;;;;;;;2.65;0.88;;;3.20;99.90;;;;;;5058172;28;20036;-53
2022/12/08 08:51:20;;;;;;;2.73;1.57;;;3.20;99.90;;;;;;5060314;28;20170;-51
2022/12/08 08:53:46;;;;;;;2.30;1.23;;;3.20;99.90;;;;;;5076598;28;20279;-51
2022/12/08 08:56:14;;;;;;;1.90;1.20;;;3.20;99.90;;;;;;5051451;28;20040;-55
2022/12/08 08:58:40;;;;;;;3.70;1.38;;;3.20;99.90;;;;;;5057277;28;20046;-54
2022/12/08 09:01:05;;;;;;;1.40;1.05;;;3.20;99.90;;;;;;5057242;28;20463;-54
2022/12/08 09:03:31;;;;;;;1.10;1.00;;;3.20;99.90;;;;;;5047107;28;20056;-54
2022/12/08 09:05:56;;;;;;;2.13;0.90;;;3.20;99.90;;;;;;5064813;28;20044;-51
2022/12/08 09:08:23;;;;;;;2.27;0.90;;;3.20;99.90;;;;;;5067753;28;20043;-51
2022/12/08 09:10:49;;;;;;;4.38;0.80;;;3.20;99.90;;;;;;5048567;28;20049;-51
2022/12/08 09:13:14;;;;;;;2.83;0.80;;;3.30;99.90;;;;;;5052566;28;20048;-54
2022/12/08 09:15:40;;;;;;;0.90;0.60;;;3.20;99.90;;;;;;5063456;28;20048;-54
2022/12/08 09:18:06;;;;;;;0.63;0.57;;;3.30;99.90;;;;;;5057362;28;20482;-54
2022/12/08 09:20:33;;;;;;;0.85;0.30;;;3.30;99.90;;;;;;5054875;28;20044;-52
2022/12/08 09:22:58;;;;;;;0.70;0.47;;;3.30;99.90;;;;;;5055066;28;20123;-55
2022/12/08 09:25:24;;;;;;;4.67;0.70;;;3.30;99.90;;;;;;5051349;28;20525;-56
2022/12/08 09:27:49;;;;;;;1.00;0.50;;;3.30;99.90;;;;;;5050103;28;20032;-52
2022/12/08 09:30:15;;;;;;;3.87;0.77;;;3.30;99.90;;;;;;5049884;28;20033;-54
2022/12/08 09:32:41;;;;;;;1.95;0.50;;;3.40;99.90;;;;;;5057148;28;20052;-56
2022/12/08 09:35:07;;;;;;;4.00;0.50;;;3.40;99.90;;;;;;5056634;28;20045;-56
2022/12/08 09:37:32;;;;;;;1.77;0.30;;;3.40;99.90;;;;;;5053775;28;20517;-54
2022/12/08 09:39:58;;;;;;;1.37;0.47;;;3.40;99.90;;;;;;5054967;28;20106;-51
2022/12/08 09:42:57;;;;;;;5.25;0.40;;;3.40;99.90;;;;;;5052456;28;20045;-55
2022/12/08 09:45:28;;;;;;;1.42;0.50;;;3.40;99.90;;;;;;5057237;28;20079;-56
2022/12/08 09:48:14;;;;;;;0.90;0.55;;;3.40;99.90;;;;;;5055750;28;20037;-53
2022/12/08 09:50:45;;;;;;;0.90;0.40;;;3.40;99.90;;;;;;5059144;28;20043;-55
2022/12/08 09:53:35;;;;;;;5.18;0.60;;;3.40;99.90;;;;;;5070976;28;20410;-53
2022/12/08 09:56:12;;;;;;;2.90;0.40;;;3.40;99.90;;;;;;5061193;28;20037;-56
2022/12/08 09:58:44;;;;;;;0.75;0.57;;;3.50;99.90;;;;;;5052856;28;20454;-55
2022/12/08 10:01:11;;;;;;;2.65;0.60;;;3.50;99.90;;;;;;5054165;28;20130;-54
2022/12/08 10:03:36;;;;;;;3.22;1.10;;;3.50;99.90;;;;;;5049563;28;20048;-51
2022/12/08 10:06:25;;;;;;;3.40;0.90;;;3.50;99.90;;;;;;5057118;28;20086;-52
2022/12/08 10:09:16;;;;;;;3.72;1.23;;;3.60;99.90;;;;;;5050505;28;20073;-53
2022/12/08 10:12:03;;;;;;;6.28;0.82;;;3.60;99.90;;;;;;5061512;28;20398;-51
2022/12/08 10:14:37;;;;;;;3.67;1.15;;;3.60;99.90;;;;;;5066367;28;20075;-52
2022/12/08 10:17:25;;;;;;;5.80;1.05;;;3.70;99.90;;;;;;5063395;28;20484;-50
2022/12/08 10:20:05;;;;;;;;;;;3.70;99.90;;;;;;5071227;28;20051;-51
2022/12/08 10:22:33;;;;;;;3.13;1.30;;;3.80;99.90;;;;;;5064478;28;19921;-52
2022/12/08 10:25:05;;;;;;;6.18;1.63;;;3.80;99.90;;;;;;5068444;28;20044;-51
2022/12/08 10:27:34;;;;;;;4.65;1.30;;;3.80;99.90;;;;;;5056769;28;20446;-51
2022/12/08 10:30:00;;;;;;;6.18;1.48;;;3.80;99.90;;;;;;5051857;28;20465;-54
2022/12/08 10:32:33;;;;;;;2.53;1.43;;;3.80;99.90;;;;;;5062576;28;20111;-51
2022/12/08 10:35:06;;;;;;;8.07;1.50;;;3.90;99.90;;;;;;5058000;28;20406;-52
2022/12/08 10:37:32;;;;;;;2.67;2.00;;;4.00;99.90;;;;;;5054788;28;20125;-52
2022/12/08 10:40:17;;;;;;;4.13;1.92;;;4.10;99.90;;;;;;5052418;28;20121;-51
2022/12/08 10:42:51;;;;;;;3.17;1.70;;;4.40;99.90;;;;;;5062703;28;20048;-53
2022/12/08 10:45:40;;;;;;;2.65;1.70;;;4.60;99.90;;;;;;5069638;28;20501;-55
2022/12/08 10:48:20;;;;;;;3.35;2.05;;;4.60;99.90;;;;;;5068416;28;20040;-51
2022/12/08 10:50:47;;;;;;;2.72;1.90;;;4.60;99.90;;;;;;5068644;28;20071;-55
2022/12/08 10:53:24;;;;;;;4.38;1.90;;;4.50;99.90;;;;;;5056400;28;20426;-53
2022/12/08 10:55:51;;;;;;;;;;;4.40;99.90;;;;;;5050499;28;20044;-56
2022/12/08 10:58:24;;;;;;;2.88;1.92;;;4.40;99.90;;;;;;5063235;28;19928;-54
2022/12/08 11:01:00;;;;;;;2.35;2.15;;;4.30;99.90;;;;;;5068320;28;20037;-52
2022/12/08 11:03:30;;;;;;;5.10;2.60;;;4.30;99.90;;;;;;5056950;28;20051;-54
2022/12/08 11:05:57;;;;;;;3.80;2.90;;;4.30;99.90;;;;;;5050446;28;20317;-53
2022/12/08 11:08:24;;;;;;;6.70;2.97;;;4.30;99.90;;;;;;5060803;28;20036;-52
2022/12/08 11:10:50;;;;;;;4.35;3.25;;;4.30;99.90;;;;;;5065750;28;20033;-54
2022/12/08 11:13:25;;;;;;;4.87;3.17;;;4.30;99.90;;;;;;5058979;28;20052;-51
2022/12/08 11:15:52;;;;;;;6.40;3.17;;;4.30;99.90;;;;;;5069672;28;20569;-54
2022/12/08 11:18:25;;;;;;;5.80;3.92;;;4.30;99.90;;;;;;5054660;28;20052;-54
2022/12/08 11:21:06;;;;;;;6.38;3.45;;;4.30;99.90;;;;;;5050940;28;20041;-54
2022/12/08 11:23:35;;;;;;;4.55;2.97;;;4.30;99.90;;;;;;5058997;28;20105;-51
2022/12/08 11:26:06;;;;;;;6.55;3.10;;;4.30;99.90;;;;;;5070599;28;20082;-52
2022/12/08 11:28:32;;;;;;;7.57;4.10;;;4.30;99.90;;;;;;5058858;28;20035;-54
2022/12/08 11:31:10;;;;;;;4.22;3.75;;;4.30;99.90;;;;;;5064209;28;20108;-55
2022/12/08 11:33:36;;;;;;;8.00;4.05;;;4.30;99.90;;;;;;5054573;28;20045;-53
2022/12/08 11:36:08;;;;;;;8.80;3.23;;;4.30;99.90;;;;;;5054127;28;20509;-56
2022/12/08 11:38:40;;;;;;;6.50;3.88;;;4.30;99.90;;;;;;5054034;28;20123;-54
2022/12/08 11:41:10;;;;;;;6.55;3.95;;;4.30;99.90;;;;;;5059426;28;20052;-58
2022/12/08 11:44:07;;;;;;;11.73;3.92;;;4.30;99.90;;;;;;5069091;28;20049;-52
2022/12/08 11:46:44;;;;;;;7.55;3.67;;;4.30;99.90;;;;;;5051553;28;20044;-53
2022/12/08 11:49:12;;;;;;;6.47;2.70;;;4.20;99.90;;;;;;5063353;28;20037;-52
2022/12/08 11:51:42;;;;;;;3.92;3.53;;;4.30;99.90;;;;;;5057157;28;20375;-54
2022/12/08 11:54:12;;;;;;;6.30;3.72;;;4.20;99.90;;;;;;5059311;28;20047;-54
2022/12/08 11:56:45;;;;;;;6.85;4.25;;;4.20;99.90;;;;;;5050306;28;20124;-54
2022/12/08 11:59:32;;;;;;;7.60;3.85;;;4.20;99.90;;;;;;5057743;28;20047;-52
2022/12/08 12:02:03;;;;;;;6.88;3.83;;;4.20;99.90;;;;;;5069359;28;20098;-54
2022/12/08 12:04:36;;;;;;;10.57;4.03;;;4.20;99.90;;;;;;5067104;28;20444;-56
2022/12/08 12:07:22;;;;;;;5.30;3.70;;;4.20;99.90;;;;;;5066774;28;20426;-54
2022/12/08 12:10:21;;;;;;;9.23;4.00;;;4.20;99.90;;;;;;5052564;28;20044;-52
2022/12/08 12:13:18;;;;;;;7.63;3.78;;;4.10;99.90;;;;;;5049209;28;20229;-55
2022/12/08 12:16:16;;;;;;;5.45;3.80;;;4.20;99.90;;;;;;5062435;28;20062;-54
2022/12/08 12:18:50;;;;;;;6.63;4.50;;;4.10;99.90;;;;;;5058793;28;20047;-55
2022/12/08 12:21:21;;;;;;;11.70;3.97;;;4.10;99.90;;;;;;5059268;28;20045;-53
2022/12/08 12:23:58;;;;;;;4.18;3.80;;;4.10;99.90;;;;;;5061275;28;20124;-52
2022/12/08 12:26:30;;;;;;;7.38;4.40;;;4.10;99.90;;;;;;5051125;28;20025;-53
2022/12/08 12:29:22;;;;;;;5.22;4.18;;;4.10;99.90;;;;;;5049824;28;20045;-52
2022/12/08 12:31:53;;;;;;;5.32;4.15;;;4.10;99.90;;;;;;5052074;28;20426;-51
2022/12/08 12:34:24;;;;;;;6.43;4.45;;;4.20;99.90;;;;;;5062481;28;20123;-55
2022/12/08 12:37:04;;;;;;;4.97;4.40;;;4.40;99.90;;;;;;5067378;28;20051;-55
2022/12/08 12:39:33;;;;;;;5.80;3.45;;;4.70;99.90;;;;;;5069303;28;20076;-57
2022/12/08 12:42:01;;;;;;;10.32;3.97;;;5.10;99.90;;;;;;5060372;28;20076;-55
2022/12/08 12:44:26;;;;;;;5.53;2.90;;;5.50;99.90;;;;;;5068106;28;20051;-53
2022/12/08 12:46:57;;;;;;;4.03;2.70;;;5.80;99.90;;;;;;5052516;28;20048;-53
2022/12/08 12:49:48;;;;;;;5.50;2.53;;;6.10;99.90;;;;;;5049296;28;20448;-54
2022/12/08 12:52:14;;;;;;;2.60;2.40;;;6.40;99.90;;;;;;5058575;28;20045;-55
2022/12/08 12:54:48;;;;;;;3.13;2.83;;;7.30;99.90;;;;;;5067726;28;20619;-54
2022/12/08 12:57:17;;;;;;;3.08;2.05;;;8.70;99.90;;;;;;5067117;28;20075;-58
2022/12/08 12:59:52;;;;;;;4.32;1.58;;;10.20;99.90;;;;;;5062402;28;20529;-54
2022/12/08 13:02:39;;;;;;;4.72;1.75;;;11.90;99.90;;;;;;5057060;28;20048;-56
2022/12/08 13:05:10;;;;;;;;;;;13.50;99.90;;;;;;5057011;28;20064;-54
2022/12/08 13:07:44;;;;;;;2.78;1.20;;;14.60;99.90;;;;;;5057645;28;19920;-55
2022/12/08 13:10:16;;;;;;;4.55;1.00;;;15.30;99.90;;;;;;5062201;28;20079;-55
2022/12/08 13:12:43;;;;;;;7.45;1.10;;;15.60;99.90;;;;;;5052200;28;20425;-57
2022/12/08 13:15:18;;;;;;;4.88;1.33;;;15.90;99.90;;;;;;5052157;28;20045;-54
2022/12/08 13:17:47;;;;;;;1.50;1.00;;;15.80;98.20;;;;;;5064179;28;20055;-56